createdAt,value
2019-05-09T00:00:33.381Z,24.53
2019-05-09T00:03:03.538Z,24.48
2019-05-09T00:05:33.480Z,24.46
2019-05-09T00:08:03.527Z,24.50
2019-05-09T00:10:39.546Z,24.45
2019-05-09T00:13:03.340Z,24.43
2019-05-09T00:15:33.176Z,24.45
2019-05-09T00:18:00.786Z,24.43
2019-05-09T00:20:37.393Z,24.41
2019-05-09T00:23:05.496Z,24.37
2019-05-09T00:25:34.000Z,24.39
2019-05-09T00:28:04.263Z,24.34
2019-05-09T00:30:51.513Z,24.34
2019-05-09T00:33:24.887Z,24.30
2019-05-09T00:35:53.666Z,24.30
2019-05-09T00:38:23.963Z,24.23
2019-05-09T00:40:58.454Z,24.25
2019-05-09T00:43:23.765Z,24.22
2019-05-09T00:46:14.162Z,24.25
2019-05-09T00:49:13.961Z,24.26
2019-05-09T00:51:43.720Z,24.27
2019-05-09T00:54:13.507Z,24.26
2019-05-09T00:56:40.827Z,24.25
2019-05-09T00:59:08.356Z,24.26
2019-05-09T01:01:37.020Z,24.24
2019-05-09T01:04:04.598Z,24.23
2019-05-09T01:06:33.835Z,24.24
2019-05-09T01:09:03.626Z,24.24
2019-05-09T01:11:33.312Z,24.21
2019-05-09T01:14:03.664Z,24.22
2019-05-09T01:16:33.519Z,24.25
2019-05-09T01:19:03.979Z,24.23
2019-05-09T01:21:33.305Z,24.24
2019-05-09T01:24:03.366Z,24.23
2019-05-09T01:26:33.326Z,24.22
2019-05-09T01:29:01.535Z,24.20
2019-05-09T01:31:29.262Z,24.20
2019-05-09T01:34:06.015Z,24.20
2019-05-09T01:36:54.030Z,24.19
2019-05-09T01:39:24.204Z,24.17
2019-05-09T01:41:53.174Z,24.17
2019-05-09T01:44:20.919Z,24.16
2019-05-09T01:46:48.531Z,24.15
2019-05-09T01:49:16.313Z,24.18
2019-05-09T01:51:53.696Z,24.17
2019-05-09T01:54:43.566Z,24.14
2019-05-09T01:57:13.688Z,24.17
2019-05-09T01:59:44.371Z,24.14
2019-05-09T02:02:14.265Z,24.14
2019-05-09T02:04:43.948Z,24.13
2019-05-09T02:07:12.774Z,24.09
2019-05-09T02:09:40.148Z,24.10
2019-05-09T02:12:07.249Z,24.05
2019-05-09T02:14:43.526Z,24.08
2019-05-09T02:17:28.867Z,24.06
2019-05-09T02:19:55.928Z,24.03
2019-05-09T02:22:34.580Z,24.05
2019-05-09T02:25:04.257Z,24.04
2019-05-09T02:27:33.249Z,24.00
2019-05-09T02:30:00.655Z,23.97
2019-05-09T02:32:27.870Z,23.94
2019-05-09T02:34:56.828Z,23.94
2019-05-09T02:37:28.637Z,23.96
2019-05-09T02:39:59.192Z,23.94
2019-05-09T02:42:28.073Z,23.98
2019-05-09T02:44:59.260Z,24.00
2019-05-09T02:47:28.699Z,23.98
2019-05-09T02:49:58.732Z,23.90
2019-05-09T02:52:28.463Z,23.94
2019-05-09T02:54:58.245Z,23.95
2019-05-09T02:57:29.071Z,23.95
2019-05-09T03:00:22.188Z,23.94
2019-05-09T03:03:11.116Z,23.91
2019-05-09T03:05:39.697Z,23.91
2019-05-09T03:08:09.732Z,23.90
2019-05-09T03:10:38.110Z,23.86
2019-05-09T03:13:09.013Z,23.85
2019-05-09T03:15:39.428Z,23.87
2019-05-09T03:18:09.396Z,23.85
2019-05-09T03:20:48.964Z,23.82
2019-05-09T03:23:19.195Z,23.82
2019-05-09T03:25:48.411Z,23.84
2019-05-09T03:28:52.680Z,23.80
2019-05-09T03:31:21.246Z,23.79
2019-05-09T03:33:50.173Z,23.77
2019-05-09T03:36:18.276Z,23.74
2019-05-09T03:38:47.467Z,23.73
2019-05-09T03:41:14.489Z,23.73
2019-05-09T03:43:41.554Z,23.73
2019-05-09T03:46:18.133Z,23.77
2019-05-09T03:48:50.217Z,23.77
2019-05-09T03:51:19.612Z,23.77
2019-05-09T03:53:48.446Z,23.76
2019-05-09T03:56:20.565Z,23.74
2019-05-09T03:58:50.260Z,23.73
2019-05-09T04:01:17.756Z,23.74
2019-05-09T04:03:48.147Z,23.72
2019-05-09T04:06:18.418Z,23.76
2019-05-09T04:08:48.207Z,23.78
2019-05-09T04:11:18.546Z,23.77
2019-05-09T04:14:01.243Z,23.72
2019-05-09T04:16:29.818Z,23.76
2019-05-09T04:18:58.388Z,23.80
2019-05-09T04:21:27.800Z,23.79
2019-05-09T04:23:54.480Z,23.80
2019-05-09T04:26:32.432Z,23.82
2019-05-09T04:29:01.424Z,23.77
2019-05-09T04:31:29.766Z,23.75
2019-05-09T04:33:59.231Z,23.77
2019-05-09T04:36:40.269Z,23.76
2019-05-09T04:39:12.587Z,23.75
2019-05-09T04:41:40.931Z,23.77
2019-05-09T04:44:16.678Z,23.77
2019-05-09T04:46:40.993Z,23.78
2019-05-09T04:49:09.934Z,23.76
2019-05-09T04:51:39.242Z,23.78
2019-05-09T04:54:07.299Z,23.81
2019-05-09T04:56:39.519Z,23.82
2019-05-09T04:59:07.497Z,23.87
2019-05-09T05:01:49.243Z,23.87
2019-05-09T05:04:18.077Z,23.96
2019-05-09T05:06:47.720Z,24.01
2019-05-09T05:09:14.592Z,24.06
2019-05-09T05:11:42.054Z,24.11
2019-05-09T05:14:20.522Z,24.16
2019-05-09T05:16:54.098Z,24.20
2019-05-09T05:19:21.906Z,24.20
2019-05-09T05:21:49.590Z,24.24
2019-05-09T05:24:29.246Z,24.29
2019-05-09T05:26:58.021Z,24.29
2019-05-09T05:29:28.104Z,24.28
2019-05-09T05:31:58.555Z,24.27
2019-05-09T05:34:31.954Z,24.28
2019-05-09T05:36:59.922Z,24.24
2019-05-09T05:39:28.298Z,24.25
2019-05-09T05:41:57.688Z,24.28
2019-05-09T05:44:25.556Z,24.33
2019-05-09T05:47:12.380Z,24.36
2019-05-09T05:49:40.054Z,24.37
2019-05-09T05:52:08.033Z,24.34
2019-05-09T05:54:37.665Z,24.35
2019-05-09T05:57:04.388Z,24.34
2019-05-09T05:59:31.461Z,24.30
2019-05-09T06:01:59.451Z,24.27
2019-05-09T06:04:27.559Z,24.25
2019-05-09T06:06:54.834Z,24.23
2019-05-09T06:09:22.098Z,24.24
2019-05-09T06:11:49.472Z,24.21
2019-05-09T06:14:18.427Z,24.18
2019-05-09T06:16:48.581Z,24.16
2019-05-09T06:19:17.930Z,24.14
2019-05-09T06:21:48.572Z,24.14
2019-05-09T06:24:17.534Z,24.25
2019-05-09T06:26:44.889Z,24.23
2019-05-09T06:29:12.147Z,24.22
2019-05-09T06:31:39.420Z,24.24
2019-05-09T06:34:08.349Z,24.24
2019-05-09T06:36:38.902Z,24.21
2019-05-09T06:39:08.408Z,24.24
2019-05-09T06:41:37.785Z,24.23
2019-05-09T06:44:19.699Z,24.25
2019-05-09T06:47:10.075Z,24.24
2019-05-09T06:49:39.542Z,24.29
2019-05-09T06:52:08.715Z,24.33
2019-05-09T06:54:35.857Z,24.40
2019-05-09T06:57:03.009Z,24.45
2019-05-09T06:59:31.146Z,24.51
2019-05-09T07:02:04.366Z,24.60
2019-05-09T07:04:38.063Z,24.80
2019-05-09T07:07:09.655Z,24.84
2019-05-09T07:09:42.561Z,24.85
2019-05-09T07:12:09.787Z,24.89
2019-05-09T07:14:40.994Z,24.87
2019-05-09T07:17:08.177Z,24.86
2019-05-09T07:19:34.823Z,24.87
2019-05-09T07:22:28.216Z,24.89
2019-05-09T07:25:10.756Z,24.95
2019-05-09T07:27:38.851Z,25.04
2019-05-09T07:30:12.733Z,25.02
2019-05-09T07:32:49.562Z,24.95
2019-05-09T07:35:18.609Z,24.93
2019-05-09T07:37:45.624Z,24.95
2019-05-09T07:40:13.004Z,24.95
2019-05-09T07:42:40.408Z,24.96
2019-05-09T07:45:08.947Z,24.93
2019-05-09T07:47:38.556Z,24.88
2019-05-09T07:50:08.227Z,24.85
2019-05-09T07:52:34.847Z,24.84
2019-05-09T07:55:01.891Z,24.85
2019-05-09T07:57:28.974Z,24.92
2019-05-09T07:59:58.376Z,24.99
2019-05-09T08:02:25.307Z,24.97
2019-05-09T08:04:52.385Z,24.89
2019-05-09T08:07:19.434Z,24.82
2019-05-09T08:09:47.559Z,24.82
2019-05-09T08:12:17.751Z,24.77
2019-05-09T08:14:44.070Z,24.76
2019-05-09T08:17:12.387Z,24.78
2019-05-09T08:19:40.289Z,24.84
2019-05-09T08:22:08.144Z,24.88
2019-05-09T08:24:38.043Z,24.93
2019-05-09T08:27:05.509Z,24.97
2019-05-09T08:29:32.565Z,24.93
2019-05-09T08:32:00.097Z,24.87
2019-05-09T08:34:28.450Z,24.84
2019-05-09T08:36:58.068Z,24.81
2019-05-09T08:39:27.507Z,24.82
2019-05-09T08:41:54.466Z,24.82
2019-05-09T08:44:21.960Z,24.84
2019-05-09T08:46:48.990Z,24.83
2019-05-09T08:49:18.239Z,24.83
2019-05-09T08:52:12.685Z,24.80
2019-05-09T08:54:40.883Z,24.76
2019-05-09T08:57:07.924Z,24.71
2019-05-09T08:59:34.975Z,24.68
2019-05-09T09:02:15.320Z,24.70
2019-05-09T09:04:32.052Z,24.69
2019-05-09T09:06:59.385Z,24.66
2019-05-09T09:09:28.599Z,24.65
2019-05-09T09:11:58.301Z,24.63
2019-05-09T09:14:27.890Z,24.61
2019-05-09T09:16:57.509Z,24.59
2019-05-09T09:19:24.562Z,24.58
2019-05-09T09:21:51.957Z,24.56
2019-05-09T09:24:18.980Z,24.62
2019-05-09T09:26:48.069Z,24.67
2019-05-09T09:29:15.032Z,24.75
2019-05-09T09:31:42.406Z,24.80
2019-05-09T09:34:09.638Z,24.81
2019-05-09T09:36:38.992Z,24.37
2019-05-09T09:39:07.980Z,24.93
2019-05-09T09:41:38.315Z,25.05
2019-05-09T09:44:03.942Z,25.20
2019-05-09T09:46:31.330Z,25.28
2019-05-09T09:48:58.728Z,25.29
2019-05-09T09:51:27.601Z,25.33
2019-05-09T09:53:55.113Z,25.30
2019-05-09T09:56:22.666Z,25.29
2019-05-09T09:59:11.098Z,25.33
2019-05-09T10:01:41.031Z,25.30
2019-05-09T10:04:19.716Z,25.21
2019-05-09T10:06:41.207Z,25.23
2019-05-09T10:09:09.434Z,25.24
2019-05-09T10:11:38.042Z,25.31
2019-05-09T10:14:07.876Z,25.42
2019-05-09T10:16:43.167Z,25.67
2019-05-09T10:19:18.621Z,25.75
2019-05-09T10:21:49.161Z,25.70
2019-05-09T10:24:17.521Z,25.59
2019-05-09T10:27:03.373Z,25.68
2019-05-09T10:29:30.388Z,25.81
2019-05-09T10:31:58.129Z,25.84
2019-05-09T10:34:28.648Z,25.74
2019-05-09T10:36:55.482Z,25.98
2019-05-09T10:39:22.857Z,26.12
2019-05-09T10:41:51.212Z,26.18
2019-05-09T10:44:25.436Z,26.27
2019-05-09T10:47:19.429Z,26.39
2019-05-09T10:49:48.768Z,26.45
2019-05-09T10:52:18.058Z,26.54
2019-05-09T10:54:44.651Z,26.54
2019-05-09T10:57:11.976Z,26.68
2019-05-09T10:59:39.036Z,26.79
2019-05-09T11:02:09.541Z,26.84
2019-05-09T11:04:37.921Z,26.92
2019-05-09T11:07:07.879Z,26.97
2019-05-09T11:09:34.401Z,27.06
2019-05-09T11:12:02.537Z,27.24
2019-05-09T11:14:36.910Z,27.31
2019-05-09T11:17:07.967Z,27.32
2019-05-09T11:19:28.894Z,27.24
2019-05-09T11:21:58.604Z,27.21
2019-05-09T11:24:40.532Z,27.04
2019-05-09T11:26:54.475Z,26.94
2019-05-09T11:29:21.722Z,26.85
2019-05-09T11:31:48.808Z,26.79
2019-05-09T11:34:15.813Z,26.60
2019-05-09T11:36:42.806Z,26.43
2019-05-09T11:41:02.125Z,26.29
2019-05-09T11:41:38.788Z,26.11
2019-05-09T11:44:08.263Z,25.93
2019-05-09T11:46:37.989Z,25.77
2019-05-09T11:49:04.460Z,25.61
2019-05-09T11:51:31.587Z,25.49
2019-05-09T11:53:59.158Z,25.40
2019-05-09T11:56:26.706Z,25.35
2019-05-09T11:58:54.091Z,25.26
2019-05-09T12:01:22.251Z,25.21
2019-05-09T12:03:52.248Z,25.15
2019-05-09T12:06:20.109Z,25.13
2019-05-09T12:08:48.422Z,25.11
2019-05-09T12:11:18.393Z,25.07
2019-05-09T12:13:44.599Z,25.05
2019-05-09T12:16:11.598Z,25.07
2019-05-09T12:18:38.604Z,25.05
2019-05-09T12:21:05.584Z,25.08
2019-05-09T12:23:32.947Z,25.11
2019-05-09T12:25:59.988Z,25.17
2019-05-09T12:28:26.983Z,25.24
2019-05-09T12:30:53.976Z,25.28
2019-05-09T12:33:21.451Z,25.23
2019-05-09T12:35:48.436Z,25.19
2019-05-09T12:38:17.877Z,25.18
2019-05-09T12:40:44.637Z,25.12
2019-05-09T12:43:12.068Z,25.11
2019-05-09T12:45:39.738Z,25.12
2019-05-09T12:48:14.158Z,25.13
2019-05-09T12:50:38.552Z,25.18
2019-05-09T12:53:04.929Z,25.21
2019-05-09T12:55:31.995Z,25.27
2019-05-09T12:57:59.595Z,25.29
2019-05-09T13:00:28.449Z,25.31
2019-05-09T13:02:55.963Z,25.36
2019-05-09T13:05:22.996Z,25.45
2019-05-09T13:07:50.031Z,25.56
2019-05-09T13:10:19.412Z,25.64
2019-05-09T13:12:48.428Z,25.68
2019-05-09T13:15:18.364Z,25.67
2019-05-09T13:17:45.281Z,25.70
2019-05-09T13:20:13.969Z,25.68
2019-05-09T13:22:41.579Z,25.68
2019-05-09T13:25:09.666Z,25.67
2019-05-09T13:27:38.736Z,25.66
2019-05-09T13:30:08.322Z,25.63
2019-05-09T13:32:37.541Z,25.60
2019-05-09T13:35:04.846Z,25.61
2019-05-09T13:37:31.912Z,25.60
2019-05-09T13:39:59.317Z,25.64
2019-05-09T13:42:28.418Z,25.67
2019-05-09T13:44:55.664Z,25.63
2019-05-09T13:47:22.972Z,25.52
2019-05-09T13:49:50.076Z,25.53
2019-05-09T13:52:17.920Z,25.52
2019-05-09T13:54:48.244Z,25.49
2019-05-09T13:57:15.036Z,25.45
2019-05-09T13:59:42.361Z,25.45
2019-05-09T14:02:10.016Z,25.60
2019-05-09T14:04:39.667Z,25.61
2019-05-09T14:07:08.488Z,25.52
2019-05-09T14:09:37.840Z,25.44
2019-05-09T14:12:04.708Z,25.43
2019-05-09T14:14:33.142Z,25.49
2019-05-09T14:17:00.893Z,25.70
2019-05-09T14:19:39.875Z,25.80
2019-05-09T14:21:58.691Z,25.89
2019-05-09T14:24:27.888Z,25.95
2019-05-09T14:26:58.124Z,25.97
2019-05-09T14:29:25.144Z,26.07
2019-05-09T14:31:52.438Z,26.18
2019-05-09T14:34:19.979Z,26.16
2019-05-09T14:36:49.526Z,26.10
2019-05-09T14:39:18.052Z,26.05
2019-05-09T14:41:47.236Z,26.02
2019-05-09T14:44:14.430Z,26.14
2019-05-09T14:46:41.460Z,26.15
2019-05-09T14:49:08.538Z,26.10
2019-05-09T14:51:37.800Z,25.99
2019-05-09T14:54:05.237Z,26.01
2019-05-09T14:56:32.285Z,26.00
2019-05-09T14:58:59.302Z,25.91
2019-05-09T15:01:28.842Z,25.74
2019-05-09T15:03:58.526Z,25.62
2019-05-09T15:06:28.111Z,25.56
2019-05-09T15:08:55.057Z,25.49
2019-05-09T15:11:22.190Z,25.41
2019-05-09T15:13:49.522Z,25.36
2019-05-09T15:16:18.399Z,25.37
2019-05-09T15:18:48.524Z,25.36
2019-05-09T15:21:16.665Z,25.35
2019-05-09T15:23:44.173Z,25.28
2019-05-09T15:26:11.220Z,25.26
2019-05-09T15:28:39.250Z,25.21
2019-05-09T15:31:08.852Z,25.23
2019-05-09T15:33:37.522Z,25.36
2019-05-09T15:36:04.578Z,25.33
2019-05-09T15:38:31.608Z,25.36
2019-05-09T15:40:59.490Z,25.29
2019-05-09T15:43:26.836Z,25.19
2019-05-09T15:46:08.423Z,25.12
2019-05-09T15:48:37.960Z,25.17
2019-05-09T15:51:04.866Z,25.28
2019-05-09T15:53:32.251Z,25.45
2019-05-09T15:55:59.286Z,25.59
2019-05-09T15:58:28.606Z,25.58
2019-05-09T16:00:55.233Z,25.75
2019-05-09T16:03:22.767Z,25.80
2019-05-09T16:05:50.216Z,25.80
2019-05-09T16:08:18.536Z,25.85
2019-05-09T16:10:46.891Z,25.81
2019-05-09T16:13:14.046Z,25.72
2019-05-09T16:15:41.474Z,25.67
2019-05-09T16:18:08.892Z,25.67
2019-05-09T16:20:38.492Z,25.64
2019-05-09T16:23:08.409Z,25.64
2019-05-09T16:25:35.314Z,25.46
2019-05-09T16:28:03.282Z,25.33
2019-05-09T16:30:30.652Z,25.27
2019-05-09T16:32:58.581Z,25.29
2019-05-09T16:35:25.755Z,25.31
2019-05-09T16:38:02.795Z,25.27
2019-05-09T16:40:22.027Z,25.32
2019-05-09T16:42:50.272Z,25.42
2019-05-09T16:45:18.273Z,25.51
2019-05-09T16:47:45.502Z,25.46
2019-05-09T16:50:12.859Z,25.40
2019-05-09T16:52:43.463Z,25.44
2019-05-09T16:55:13.880Z,25.50
2019-05-09T16:57:42.319Z,25.49
2019-05-09T17:00:11.763Z,25.49
2019-05-09T17:02:39.046Z,25.39
2019-05-09T17:05:08.373Z,25.33
2019-05-09T17:07:38.225Z,25.36
2019-05-09T17:10:08.157Z,25.40
2019-05-09T17:12:34.722Z,25.45
2019-05-09T17:15:01.772Z,25.46
2019-05-09T17:17:29.101Z,25.49
2019-05-09T17:19:57.277Z,25.53
2019-05-09T17:22:42.968Z,25.58
2019-05-09T17:25:10.416Z,25.60
2019-05-09T17:27:38.704Z,25.66
2019-05-09T17:30:08.484Z,25.72
2019-05-09T17:32:37.990Z,25.73
2019-05-09T17:35:05.651Z,25.68
2019-05-09T17:37:33.412Z,25.58
2019-05-09T17:40:00.684Z,25.55
2019-05-09T17:42:28.251Z,25.54
2019-05-09T17:44:57.792Z,25.52
2019-05-09T17:47:25.003Z,25.49
2019-05-09T17:49:52.546Z,25.51
2019-05-09T17:52:20.314Z,25.56
2019-05-09T17:54:48.537Z,25.63
2019-05-09T17:57:18.604Z,25.66
2019-05-09T17:59:45.194Z,25.71
2019-05-09T18:02:12.471Z,25.70
2019-05-09T18:04:40.356Z,25.68
2019-05-09T18:07:08.937Z,25.69
2019-05-09T18:09:36.426Z,25.71
2019-05-09T18:12:03.651Z,25.66
2019-05-09T18:14:30.720Z,25.63
2019-05-09T18:16:58.862Z,25.60
2019-05-09T18:19:29.106Z,25.53
2019-05-09T18:21:57.845Z,25.48
2019-05-09T18:24:28.501Z,25.49
2019-05-09T18:26:55.350Z,25.49
2019-05-09T18:29:22.443Z,25.50
2019-05-09T18:32:00.484Z,25.21
2019-05-09T18:34:28.641Z,25.50
2019-05-09T18:36:58.592Z,25.52
2019-05-09T18:39:27.735Z,25.47
2019-05-09T18:41:55.053Z,25.50
2019-05-09T18:44:22.531Z,25.50
2019-05-09T18:46:49.604Z,25.49
2019-05-09T18:49:16.690Z,25.50
2019-05-09T18:51:43.987Z,25.51
2019-05-09T18:54:11.314Z,25.51
2019-05-09T18:56:38.310Z,25.52
2019-05-09T18:59:05.425Z,25.49
2019-05-09T19:01:32.718Z,25.48
2019-05-09T19:04:00.819Z,25.50
2019-05-09T19:06:28.018Z,25.50
2019-05-09T19:08:55.078Z,25.47
2019-05-09T19:11:22.503Z,25.45
2019-05-09T19:13:49.510Z,25.46
2019-05-09T19:16:27.957Z,25.46
2019-05-09T19:19:09.388Z,25.44
2019-05-09T19:21:56.051Z,25.34
2019-05-09T19:24:23.054Z,25.25
2019-05-09T19:26:50.725Z,25.19
2019-05-09T19:29:17.720Z,25.19
2019-05-09T19:31:44.718Z,25.21
2019-05-09T19:34:11.853Z,25.32
2019-05-09T19:36:39.278Z,25.35
2019-05-09T19:39:08.574Z,25.29
2019-05-09T19:41:36.891Z,25.20
2019-05-09T19:44:04.640Z,25.15
2019-05-09T19:46:31.916Z,25.10
2019-05-09T19:48:59.068Z,25.08
2019-05-09T19:51:26.162Z,25.05
2019-05-09T19:53:53.207Z,25.05
2019-05-09T19:56:22.016Z,25.10
2019-05-09T19:58:49.335Z,25.13
2019-05-09T20:01:16.491Z,25.16
2019-05-09T20:03:44.116Z,25.18
2019-05-09T20:06:11.423Z,25.21
2019-05-09T20:08:38.832Z,25.23
2019-05-09T20:11:35.544Z,25.26
2019-05-09T20:14:21.240Z,25.31
2019-05-09T20:16:50.434Z,25.31
2019-05-09T20:19:17.891Z,25.36
2019-05-09T20:21:46.024Z,25.37
2019-05-09T20:24:15.135Z,25.31
2019-05-09T20:26:43.067Z,25.30
2019-05-09T20:29:10.943Z,25.27
2019-05-09T20:31:39.124Z,25.23
2019-05-09T20:34:06.267Z,25.22
2019-05-09T20:36:33.597Z,25.22
2019-05-09T20:39:00.692Z,25.24
2019-05-09T20:41:28.128Z,25.23
2019-05-09T20:43:55.792Z,25.27
2019-05-09T20:46:23.124Z,25.25
2019-05-09T20:48:50.242Z,25.25
2019-05-09T20:51:17.587Z,25.29
2019-05-09T20:53:45.239Z,25.31
2019-05-09T20:56:12.597Z,25.32
2019-05-09T20:58:40.364Z,25.34
2019-05-09T21:01:07.752Z,25.32
2019-05-09T21:03:35.018Z,25.34
2019-05-09T21:06:02.444Z,25.37
2019-05-09T21:08:29.632Z,25.44
2019-05-09T21:10:57.062Z,25.49
2019-05-09T21:13:24.551Z,25.54
2019-05-09T21:15:51.735Z,25.60
2019-05-09T21:18:19.795Z,25.57
2019-05-09T21:20:47.875Z,25.56
2019-05-09T21:23:24.387Z,25.54
2019-05-09T21:25:44.840Z,25.56
2019-05-09T21:28:11.866Z,25.60
2019-05-09T21:30:39.181Z,25.61
2019-05-09T21:33:06.305Z,25.59
2019-05-09T21:35:33.764Z,25.59
2019-05-09T21:38:00.903Z,25.54
2019-05-09T21:40:28.253Z,25.52
2019-05-09T21:42:55.519Z,25.54
2019-05-09T21:45:22.572Z,25.53
2019-05-09T21:47:49.849Z,25.43
2019-05-09T21:50:16.904Z,25.43
2019-05-09T21:52:44.293Z,25.44
2019-05-09T21:55:11.319Z,25.43
2019-05-09T21:57:39.303Z,25.42
2019-05-09T22:00:09.599Z,25.41
2019-05-09T22:02:36.678Z,25.37
2019-05-09T22:05:04.906Z,25.30
2019-05-09T22:07:32.044Z,25.25
2019-05-09T22:10:00.072Z,25.19
2019-05-09T22:12:27.707Z,25.15
2019-05-09T22:14:54.785Z,25.09
2019-05-09T22:17:31.556Z,25.07
2019-05-09T22:19:59.577Z,24.99
2019-05-09T22:22:26.902Z,24.98
2019-05-09T22:24:54.086Z,24.90
2019-05-09T22:27:21.442Z,24.90
2019-05-09T22:29:48.534Z,24.86
2019-05-09T22:32:16.205Z,24.83
2019-05-09T22:34:43.337Z,24.83
2019-05-09T22:37:11.009Z,24.78
2019-05-09T22:39:38.387Z,24.76
2019-05-09T22:42:05.703Z,24.75
2019-05-09T22:44:32.865Z,24.73
2019-05-09T22:47:00.123Z,24.70
2019-05-09T22:49:27.250Z,24.66
2019-05-09T22:51:54.519Z,24.64
2019-05-09T22:54:22.003Z,24.62
2019-05-09T22:56:49.026Z,24.61
2019-05-09T22:59:16.421Z,24.59
2019-05-09T23:01:43.455Z,24.57
2019-05-09T23:04:10.575Z,24.59
2019-05-09T23:06:37.634Z,24.57
2019-05-09T23:09:05.622Z,24.55
2019-05-09T23:11:32.649Z,24.52
2019-05-09T23:14:00.715Z,24.51
2019-05-09T23:16:32.331Z,24.42
2019-05-09T23:19:02.379Z,24.50
2019-05-09T23:21:32.626Z,24.55
2019-05-09T23:24:07.850Z,24.57
2019-05-09T23:26:37.421Z,24.57
2019-05-09T23:29:08.768Z,24.47
2019-05-09T23:31:46.775Z,24.56
2019-05-09T23:34:15.120Z,24.56
2019-05-09T23:36:43.167Z,24.56
2019-05-09T23:40:35.312Z,24.57
2019-05-09T23:43:05.840Z,24.52
2019-05-09T23:45:33.855Z,24.44
2019-05-09T23:48:03.810Z,24.43
2019-05-09T23:50:32.370Z,24.33
2019-05-09T23:52:59.979Z,24.44
2019-05-09T23:55:47.684Z,24.43
2019-05-09T23:58:35.620Z,24.34
